Time;durP1;ratioP1;P1;durP2;ratioP2;P2;SDS_P1;SDS_P2;PMS_P1;PMS_P2;Temp;Humidity;BMP_temperature;BMP_pressure;BME280_temperature;BME280_humidity;BME280_pressure;Samples;Min_cycle;Max_cycle;Signal;HPM_P1;HPM_P2
2023/04/22 00:00:14;;;;;;;10.30;9.27;;;9.10;99.90;;;;;;5030718;28;20187;-66
2023/04/22 00:02:40;;;;;;;9.93;8.93;;;9.20;99.90;;;;;;5031155;28;20265;-65
2023/04/22 00:05:07;;;;;;;11.67;10.27;;;9.20;99.90;;;;;;5030913;28;20671;-66
2023/04/22 00:07:32;;;;;;;10.47;9.37;;;9.20;99.90;;;;;;5031003;28;20661;-66
2023/04/22 00:09:58;;;;;;;11.07;10.00;;;9.20;99.90;;;;;;5030623;28;20195;-65
2023/04/22 00:12:24;;;;;;;10.73;9.73;;;9.30;99.90;;;;;;5030946;28;20172;-66
2023/04/22 00:14:50;;;;;;;10.73;9.80;;;9.30;99.90;;;;;;5031178;28;20203;-65
2023/04/22 00:17:16;;;;;;;10.43;9.40;;;9.30;99.90;;;;;;5030735;28;20176;-65
2023/04/22 00:19:42;;;;;;;9.60;8.70;;;9.30;99.90;;;;;;5033885;28;20285;-65
2023/04/22 00:22:08;;;;;;;11.93;8.13;;;9.30;99.90;;;;;;5034835;28;20637;-65
2023/04/22 00:24:33;;;;;;;9.73;8.90;;;9.40;99.90;;;;;;5035035;28;20202;-65
2023/04/22 00:26:59;;;;;;;9.30;8.50;;;9.30;99.90;;;;;;5034693;28;20178;-66
2023/04/22 00:29:25;;;;;;;9.50;8.70;;;9.30;99.90;;;;;;5034489;28;20214;-66
2023/04/22 00:31:51;;;;;;;9.13;8.40;;;9.30;99.90;;;;;;5034502;28;20270;-66
2023/04/22 00:34:16;;;;;;;10.53;9.63;;;9.30;99.90;;;;;;5034912;28;20175;-66
2023/04/22 00:36:43;;;;;;;9.90;9.10;;;9.20;99.90;;;;;;5033441;28;20179;-65
2023/04/22 00:39:08;;;;;;;13.23;10.17;;;9.20;99.90;;;;;;5033728;28;20211;-65
2023/04/22 00:41:34;;;;;;;11.10;10.10;;;9.20;99.90;;;;;;5033642;28;20683;-66
2023/04/22 00:44:00;;;;;;;10.23;9.33;;;9.20;99.90;;;;;;5034265;28;20232;-65
2023/04/22 00:46:26;;;;;;;10.87;9.77;;;9.20;99.90;;;;;;5034293;28;20250;-65
2023/04/22 00:48:52;;;;;;;13.07;9.53;;;9.20;99.90;;;;;;5034317;28;20222;-66
2023/04/22 00:51:17;;;;;;;10.63;9.73;;;9.30;99.90;;;;;;5034233;28;20179;-66
2023/04/22 00:53:43;;;;;;;10.00;9.00;;;9.30;99.90;;;;;;5034400;28;20183;-66
2023/04/22 00:56:10;;;;;;;10.67;9.60;;;9.30;99.90;;;;;;5034009;28;20183;-66
2023/04/22 00:58:36;;;;;;;10.30;9.30;;;9.30;99.90;;;;;;5034354;28;20211;-65
2023/04/22 01:01:02;;;;;;;12.77;10.40;;;9.30;99.90;;;;;;5033655;28;20518;-66
2023/04/22 01:03:29;;;;;;;12.10;9.27;;;9.30;99.90;;;;;;5034407;28;20701;-66
2023/04/22 01:05:56;;;;;;;11.73;9.60;;;9.30;99.90;;;;;;5033909;28;20186;-65
2023/04/22 01:08:26;;;;;;;17.13;10.77;;;9.30;99.90;;;;;;5034210;28;20217;-66
2023/04/22 01:10:52;;;;;;;12.47;10.90;;;9.40;99.90;;;;;;5033569;28;20233;-65
2023/04/22 01:13:18;;;;;;;14.60;11.37;;;9.40;99.90;;;;;;5033971;28;20642;-66
2023/04/22 01:15:43;;;;;;;12.87;11.50;;;9.40;99.90;;;;;;5033494;28;20236;-66
2023/04/22 01:18:09;;;;;;;17.37;12.23;;;9.40;99.90;;;;;;5033914;28;20218;-66
2023/04/22 01:20:35;;;;;;;15.83;11.67;;;9.40;99.90;;;;;;5033470;28;20191;-65
2023/04/22 01:23:08;;;;;;;15.03;12.53;;;9.40;99.90;;;;;;5033793;28;20171;-65
2023/04/22 01:25:34;;;;;;;19.60;12.37;;;9.40;99.90;;;;;;5033501;28;20178;-66
2023/04/22 01:28:01;;;;;;;14.00;11.90;;;9.40;99.90;;;;;;5033429;28;20207;-66
2023/04/22 01:30:26;;;;;;;16.07;11.87;;;9.40;99.90;;;;;;5031967;28;20534;-65
2023/04/22 01:32:52;;;;;;;13.83;11.67;;;9.40;99.90;;;;;;5033692;28;20250;-66
2023/04/22 01:35:18;;;;;;;15.70;11.50;;;9.40;99.90;;;;;;5033551;28;20179;-66
2023/04/22 01:37:44;;;;;;;12.70;11.17;;;9.40;99.90;;;;;;5033202;28;20560;-65
2023/04/22 01:40:11;;;;;;;12.67;11.10;;;9.40;99.90;;;;;;5033192;28;20171;-65
2023/04/22 01:42:37;;;;;;;16.13;11.63;;;9.40;99.90;;;;;;5033365;28;20238;-66
2023/04/22 01:45:03;;;;;;;16.60;11.23;;;9.40;99.90;;;;;;5033451;28;20269;-65
2023/04/22 01:47:28;;;;;;;19.17;12.60;;;9.40;99.90;;;;;;5032920;28;20179;-66
2023/04/22 01:49:54;;;;;;;14.73;12.40;;;9.40;99.90;;;;;;5032895;28;20167;-66
2023/04/22 01:52:20;;;;;;;14.60;11.30;;;9.40;99.90;;;;;;5033199;28;20176;-65
2023/04/22 01:54:47;;;;;;;14.77;11.37;;;9.40;99.90;;;;;;5033522;28;20222;-66
2023/04/22 01:57:15;;;;;;;13.40;11.10;;;9.40;99.90;;;;;;5032820;28;20545;-66
2023/04/22 01:59:40;;;;;;;12.60;11.30;;;9.40;99.90;;;;;;5032547;28;20199;-66
2023/04/22 02:02:06;;;;;;;13.83;11.33;;;9.40;99.90;;;;;;5032991;28;20546;-65
2023/04/22 02:04:31;;;;;;;14.23;11.30;;;9.40;99.90;;;;;;5032783;28;20210;-66
2023/04/22 02:06:57;;;;;;;13.93;10.73;;;9.30;99.90;;;;;;5033150;28;20250;-66
2023/04/22 02:09:23;;;;;;;11.53;10.53;;;9.30;99.90;;;;;;5032483;28;20303;-66
2023/04/22 02:11:48;;;;;;;14.60;12.17;;;9.30;99.90;;;;;;5032615;28;20186;-65
2023/04/22 02:14:14;;;;;;;15.47;12.47;;;9.30;99.90;;;;;;5032565;28;20637;-66
2023/04/22 02:16:40;;;;;;;12.17;10.90;;;9.30;99.90;;;;;;5032884;28;20172;-66
2023/04/22 02:19:06;;;;;;;13.73;12.27;;;9.30;99.90;;;;;;5032051;28;20207;-65
2023/04/22 02:21:32;;;;;;;12.87;11.67;;;9.30;99.90;;;;;;5033068;28;20655;-66
2023/04/22 02:23:57;;;;;;;19.07;11.90;;;9.30;99.90;;;;;;5032338;28;20176;-66
2023/04/22 02:26:24;;;;;;;12.90;10.90;;;9.30;99.90;;;;;;5031499;28;20629;-66
2023/04/22 02:28:51;;;;;;;17.43;11.87;;;9.30;99.90;;;;;;5032408;28;20210;-66
2023/04/22 02:31:16;;;;;;;15.43;11.60;;;9.30;99.90;;;;;;5031873;28;20257;-65
2023/04/22 02:33:42;;;;;;;13.27;11.83;;;9.30;99.90;;;;;;5032575;28;20175;-66
2023/04/22 02:36:07;;;;;;;13.33;11.30;;;9.30;99.90;;;;;;5032035;28;20180;-65
2023/04/22 02:38:33;;;;;;;12.00;10.37;;;9.40;99.90;;;;;;5030897;28;20230;-65
2023/04/22 02:40:59;;;;;;;12.50;11.07;;;9.40;99.90;;;;;;5031233;28;20255;-65
2023/04/22 02:43:24;;;;;;;14.07;11.50;;;9.50;99.90;;;;;;5032542;28;20171;-66
2023/04/22 02:45:50;;;;;;;11.83;10.60;;;9.50;99.90;;;;;;5031944;28;20711;-65
2023/04/22 02:48:16;;;;;;;13.00;10.70;;;9.50;99.90;;;;;;5032307;28;20195;-66
2023/04/22 02:50:41;;;;;;;13.00;10.80;;;9.50;99.90;;;;;;5031719;28;20176;-65
2023/04/22 02:53:08;;;;;;;12.97;11.53;;;9.50;99.90;;;;;;5032138;28;20665;-66
2023/04/22 02:55:33;;;;;;;13.20;11.87;;;9.50;99.90;;;;;;5031866;28;20598;-65
2023/04/22 02:57:59;;;;;;;15.23;11.07;;;9.50;99.90;;;;;;5032068;28;20301;-66
2023/04/22 03:00:25;;;;;;;11.57;10.27;;;9.50;99.90;;;;;;5031871;28;20392;-66
2023/04/22 03:02:50;;;;;;;11.27;10.27;;;9.50;99.90;;;;;;5031773;28;20182;-66
2023/04/22 03:05:16;;;;;;;15.10;10.10;;;9.50;99.90;;;;;;5031614;28;20182;-65
2023/04/22 03:07:43;;;;;;;11.80;10.37;;;9.60;99.90;;;;;;5031516;28;20218;-65
2023/04/22 03:10:08;;;;;;;10.90;9.83;;;9.60;99.90;;;;;;5031495;28;20171;-65
2023/04/22 03:12:34;;;;;;;13.83;10.23;;;9.60;99.90;;;;;;5031564;28;20184;-65
2023/04/22 03:15:00;;;;;;;13.10;9.90;;;9.70;99.90;;;;;;5031604;28;20573;-65
2023/04/22 03:17:26;;;;;;;11.53;10.33;;;9.80;99.90;;;;;;5031405;28;20259;-66
2023/04/22 03:19:52;;;;;;;12.77;10.70;;;9.80;99.90;;;;;;5031251;28;20229;-65
2023/04/22 03:22:19;;;;;;;11.07;9.80;;;9.80;99.90;;;;;;5031509;28;20608;-66
2023/04/22 03:24:45;;;;;;;14.30;11.17;;;9.80;99.90;;;;;;5031798;28;20229;-66
2023/04/22 03:27:10;;;;;;;12.30;10.77;;;9.80;99.90;;;;;;5031176;28;20183;-65
2023/04/22 03:29:36;;;;;;;12.43;10.07;;;9.80;99.90;;;;;;5031858;28;20290;-66
2023/04/22 03:32:01;;;;;;;11.07;9.97;;;9.80;99.90;;;;;;5029964;28;20471;-66
2023/04/22 03:34:27;;;;;;;12.97;11.13;;;9.80;99.90;;;;;;5031715;28;20596;-66
2023/04/22 03:36:53;;;;;;;13.83;11.57;;;9.90;99.90;;;;;;5031224;28;20188;-66
2023/04/22 03:39:18;;;;;;;13.00;10.13;;;9.90;99.90;;;;;;5031239;28;20220;-66
2023/04/22 03:41:45;;;;;;;14.90;10.87;;;9.90;99.90;;;;;;5031087;28;20259;-66
2023/04/22 03:44:10;;;;;;;12.40;9.87;;;9.90;99.90;;;;;;5031520;28;20184;-66
2023/04/22 03:46:36;;;;;;;11.53;10.50;;;9.90;99.90;;;;;;5031307;28;20182;-66
2023/04/22 03:49:01;;;;;;;11.93;10.43;;;9.90;99.90;;;;;;5030969;28;20199;-65
2023/04/22 03:51:27;;;;;;;11.03;9.50;;;9.90;99.90;;;;;;5031227;28;20546;-65
2023/04/22 03:53:53;;;;;;;13.63;10.60;;;10.00;99.90;;;;;;5030423;28;20187;-66
2023/04/22 03:56:19;;;;;;;10.77;9.60;;;10.00;99.90;;;;;;5031138;28;20278;-65
2023/04/22 03:58:44;;;;;;;11.10;9.97;;;10.00;99.90;;;;;;5031205;28;20222;-66
2023/04/22 04:01:10;;;;;;;12.50;9.83;;;10.00;99.90;;;;;;5030727;28;20183;-66
2023/04/22 04:03:36;;;;;;;12.23;9.30;;;9.90;99.90;;;;;;5031323;28;20175;-65
2023/04/22 04:06:02;;;;;;;10.77;9.67;;;10.00;99.90;;;;;;5031066;28;20183;-66
2023/04/22 04:08:27;;;;;;;11.53;10.33;;;9.90;99.90;;;;;;5031195;28;20605;-65
2023/04/22 04:10:53;;;;;;;10.47;9.37;;;9.90;99.90;;;;;;5030383;28;20223;-66
2023/04/22 04:13:18;;;;;;;12.90;10.47;;;9.80;99.90;;;;;;5031193;28;20179;-66
2023/04/22 04:15:44;;;;;;;10.47;9.17;;;9.80;99.90;;;;;;5030827;28;20187;-65
2023/04/22 04:18:10;;;;;;;11.63;9.73;;;9.70;99.90;;;;;;5030628;28;20217;-66
2023/04/22 04:20:36;;;;;;;11.70;9.90;;;9.70;99.90;;;;;;5030748;28;20176;-66
2023/04/22 04:23:01;;;;;;;10.17;9.20;;;9.70;99.90;;;;;;5029641;28;20190;-65
2023/04/22 04:25:29;;;;;;;10.77;9.80;;;9.70;99.90;;;;;;5031088;28;20172;-66
2023/04/22 04:27:55;;;;;;;10.83;9.83;;;9.70;99.90;;;;;;5030369;28;20223;-66
2023/04/22 04:30:21;;;;;;;14.03;10.63;;;9.70;99.90;;;;;;5029350;28;20565;-65
2023/04/22 04:32:46;;;;;;;10.43;9.20;;;9.80;99.90;;;;;;5030837;28;20183;-65
2023/04/22 04:35:13;;;;;;;10.40;9.37;;;9.70;99.90;;;;;;5030909;28;20718;-65
2023/04/22 04:37:41;;;;;;;9.33;8.53;;;9.70;99.90;;;;;;5030558;28;20693;-66
2023/04/22 04:40:09;;;;;;;10.10;9.07;;;9.80;99.90;;;;;;5030413;28;20176;-66
2023/04/22 04:42:34;;;;;;;9.70;8.70;;;9.80;99.90;;;;;;5030689;28;20167;-66
2023/04/22 04:45:00;;;;;;;11.57;9.47;;;9.80;99.90;;;;;;5030537;28;20190;-66
2023/04/22 04:47:25;;;;;;;9.37;8.57;;;9.80;99.90;;;;;;5030883;28;20250;-66
2023/04/22 04:49:53;;;;;;;10.60;9.63;;;9.80;99.90;;;;;;5030016;28;20261;-66
2023/04/22 04:52:18;;;;;;;9.90;9.00;;;9.80;99.90;;;;;;5030701;28;20538;-66
2023/04/22 04:54:44;;;;;;;10.73;8.93;;;9.80;99.90;;;;;;5030902;28;20275;-66
2023/04/22 04:57:09;;;;;;;10.27;8.37;;;9.80;99.90;;;;;;5030631;28;20179;-66
2023/04/22 04:59:35;;;;;;;9.57;8.67;;;9.80;99.90;;;;;;5030420;28;20207;-66
2023/04/22 05:02:01;;;;;;;10.67;8.53;;;9.80;99.90;;;;;;5030121;28;20190;-65
2023/04/22 05:04:26;;;;;;;9.67;8.77;;;9.80;99.90;;;;;;5031981;28;20546;-66
2023/04/22 05:06:52;;;;;;;9.87;8.50;;;9.80;99.90;;;;;;5033989;28;20176;-66
2023/04/22 05:09:18;;;;;;;10.37;9.37;;;9.90;99.90;;;;;;5034012;28;20199;-66
2023/04/22 05:11:43;;;;;;;9.57;8.53;;;10.00;99.90;;;;;;5033807;28;20186;-66
2023/04/22 05:14:09;;;;;;;9.83;8.87;;;10.00;99.90;;;;;;5034208;28;20185;-66
2023/04/22 05:16:35;;;;;;;9.73;8.77;;;10.10;99.90;;;;;;5033890;28;20688;-66
2023/04/22 05:19:00;;;;;;;9.87;7.77;;;10.20;99.90;;;;;;5033929;28;20222;-66
2023/04/22 05:21:26;;;;;;;10.07;9.00;;;10.20;99.90;;;;;;5033512;28;20383;-66
2023/04/22 05:23:51;;;;;;;9.60;8.70;;;10.30;99.90;;;;;;5033690;28;20168;-65
2023/04/22 05:26:17;;;;;;;9.43;8.63;;;10.40;99.90;;;;;;5033742;28;20175;-65
2023/04/22 05:28:43;;;;;;;9.40;8.47;;;10.50;99.90;;;;;;5033762;28;20222;-65
2023/04/22 05:31:08;;;;;;;12.03;10.93;;;10.60;99.90;;;;;;5033182;28;20653;-65
2023/04/22 05:33:34;;;;;;;9.03;8.33;;;10.70;99.90;;;;;;5033870;28;20225;-65
2023/04/22 05:36:00;;;;;;;8.40;7.70;;;10.80;99.90;;;;;;5033342;28;20226;-65
2023/04/22 05:38:25;;;;;;;9.27;8.47;;;10.80;99.90;;;;;;5033375;28;20218;-65
2023/04/22 05:40:51;;;;;;;8.70;7.80;;;10.90;99.90;;;;;;5033183;28;20172;-65
2023/04/22 05:43:16;;;;;;;9.00;8.17;;;10.90;99.90;;;;;;5032619;28;20641;-65
2023/04/22 05:45:42;;;;;;;8.00;7.40;;;11.10;99.90;;;;;;5033093;28;20266;-65
2023/04/22 05:48:07;;;;;;;7.80;7.13;;;11.20;99.90;;;;;;5033451;28;20196;-65
2023/04/22 05:50:33;;;;;;;9.00;8.20;;;11.20;99.90;;;;;;5033062;28;20258;-65
2023/04/22 05:52:59;;;;;;;8.37;7.67;;;11.30;99.90;;;;;;5033336;28;20178;-65
2023/04/22 05:55:24;;;;;;;9.77;8.70;;;11.30;99.90;;;;;;5033386;28;20538;-65
2023/04/22 05:57:50;;;;;;;8.67;7.97;;;11.40;99.90;;;;;;5032657;28;20249;-65
2023/04/22 06:00:16;;;;;;;9.60;8.60;;;11.40;99.90;;;;;;5033099;28;20172;-65
2023/04/22 06:02:42;;;;;;;8.40;7.60;;;11.50;99.90;;;;;;5033144;28;20257;-65
2023/04/22 06:05:08;;;;;;;9.17;8.20;;;11.50;99.90;;;;;;5033141;28;20209;-65
2023/04/22 06:07:34;;;;;;;8.93;8.23;;;11.60;99.90;;;;;;5032805;28;20199;-65
2023/04/22 06:09:59;;;;;;;8.37;7.67;;;11.90;99.90;;;;;;5032106;28;20193;-65
2023/04/22 06:12:25;;;;;;;8.30;7.50;;;12.00;99.90;;;;;;5031901;28;20521;-65
2023/04/22 06:14:51;;;;;;;8.97;8.00;;;12.10;99.90;;;;;;5031099;28;20183;-65
2023/04/22 06:17:16;;;;;;;8.73;7.93;;;12.20;99.90;;;;;;5032079;28;20241;-66
2023/04/22 06:19:42;;;;;;;8.50;7.70;;;12.30;99.90;;;;;;5032237;28;20207;-65
2023/04/22 06:22:07;;;;;;;9.27;8.57;;;12.40;99.90;;;;;;5031238;28;20215;-65
2023/04/22 06:24:33;;;;;;;9.77;8.53;;;12.70;99.90;;;;;;5032532;28;20179;-65
2023/04/22 06:26:59;;;;;;;8.00;7.40;;;13.10;99.90;;;;;;5032441;28;20168;-65
2023/04/22 06:29:24;;;;;;;8.33;7.53;;;13.40;99.90;;;;;;5032109;28;20219;-66
2023/04/22 06:31:50;;;;;;;8.33;7.63;;;13.80;99.90;;;;;;5032333;28;20278;-65
2023/04/22 06:34:15;;;;;;;7.77;7.07;;;14.00;99.90;;;;;;5032146;28;20187;-65
2023/04/22 06:36:43;;;;;;;7.97;7.27;;;14.30;99.90;;;;;;5032696;28;20203;-65
2023/04/22 06:39:09;;;;;;;7.97;7.33;;;14.60;99.90;;;;;;5031922;28;20211;-65
2023/04/22 06:41:35;;;;;;;8.40;7.40;;;14.90;99.90;;;;;;5032344;28;20179;-65
2023/04/22 06:44:01;;;;;;;8.83;8.03;;;15.20;99.90;;;;;;5031105;28;20692;-65
2023/04/22 06:46:26;;;;;;;8.50;7.50;;;15.40;99.90;;;;;;5031598;28;20168;-64
2023/04/22 06:48:52;;;;;;;8.87;8.27;;;15.70;99.90;;;;;;5031267;28;20191;-65
2023/04/22 06:51:18;;;;;;;7.37;6.87;;;15.90;99.90;;;;;;5031018;28;20263;-65
2023/04/22 06:53:43;;;;;;;7.37;6.87;;;16.30;99.90;;;;;;5031693;28;20609;-66
2023/04/22 06:56:09;;;;;;;7.20;6.70;;;16.60;99.90;;;;;;5031968;28;20242;-66
2023/04/22 06:58:34;;;;;;;7.47;6.97;;;16.90;76.10;;;;;;5032596;28;20731;-66
2023/04/22 07:01:00;;;;;;;7.23;6.70;;;16.80;31.10;;;;;;5031497;28;20258;-65
2023/04/22 07:03:26;;;;;;;6.13;5.63;;;16.50;25.30;;;;;;5031685;28;20191;-65
2023/04/22 07:05:51;;;;;;;6.00;5.60;;;16.30;35.40;;;;;;5031921;28;20178;-65
2023/04/22 07:08:18;;;;;;;6.67;6.23;;;16.00;26.80;;;;;;5031388;28;20221;-64
2023/04/22 07:10:44;;;;;;;6.83;6.23;;;15.90;92.50;;;;;;5031312;28;20895;-64
2023/04/22 07:13:09;;;;;;;6.37;5.87;;;16.00;97.60;;;;;;5031414;28;20288;-65
2023/04/22 07:15:35;;;;;;;8.17;7.60;;;16.20;76.60;;;;;;5031946;28;20183;-65
2023/04/22 07:18:01;;;;;;;6.77;6.33;;;16.30;99.90;;;;;;5030788;28;20207;-65
2023/04/22 07:20:26;;;;;;;6.47;5.73;;;16.70;94.20;;;;;;5031500;28;20183;-66
2023/04/22 07:22:52;;;;;;;5.53;5.13;;;17.20;84.40;;;;;;5031589;28;20585;-65
2023/04/22 07:25:17;;;;;;;6.43;5.50;;;17.70;12.50;;;;;;5031222;28;20178;-65
2023/04/22 07:27:43;;;;;;;4.95;4.43;;;18.10;1.00;;;;;;5031123;28;20653;-65
2023/04/22 07:30:10;;;;;;;4.97;4.47;;;18.50;99.90;;;;;;5031402;28;20207;-65
2023/04/22 07:32:36;;;;;;;4.88;4.47;;;19.00;1.00;;;;;;5031465;28;20191;-65
2023/04/22 07:35:01;;;;;;;4.90;4.57;;;19.40;1.00;;;;;;5031460;28;20243;-66
2023/04/22 07:37:27;;;;;;;5.55;4.53;;;19.50;1.00;;;;;;5031084;28;20179;-65
2023/04/22 07:39:53;;;;;;;6.05;5.45;;;19.70;1.00;;;;;;5030823;28;20249;-64
2023/04/22 07:42:19;;;;;;;5.90;5.50;;;20.00;1.00;;;;;;5031091;28;20673;-64
2023/04/22 07:44:44;;;;;;;4.60;4.30;;;20.20;1.00;;;;;;5031236;28;20548;-66
2023/04/22 07:47:10;;;;;;;4.80;4.40;;;20.30;1.00;;;;;;5031352;28;20241;-65
2023/04/22 07:49:36;;;;;;;4.93;4.35;;;20.50;1.00;;;;;;5028547;28;20239;-66
2023/04/22 07:52:01;;;;;;;4.05;3.85;;;20.50;1.00;;;;;;5030900;28;20262;-64
2023/04/22 07:54:27;;;;;;;5.10;4.70;;;20.60;1.00;;;;;;5031385;28;20249;-66
2023/04/22 07:56:52;;;;;;;5.53;5.13;;;20.70;1.00;;;;;;5031252;28;20551;-65
2023/04/22 07:59:18;;;;;;;5.47;5.05;;;20.70;1.00;;;;;;5030376;28;20290;-64
2023/04/22 08:01:45;;;;;;;5.07;4.78;;;20.70;1.00;;;;;;5031355;28;20172;-65
2023/04/22 08:04:11;;;;;;;4.78;4.47;;;20.70;1.00;;;;;;5030718;28;20180;-65
2023/04/22 08:06:37;;;;;;;5.35;3.90;;;20.70;1.00;;;;;;5031279;28;20707;-65
2023/04/22 08:09:02;;;;;;;4.40;4.10;;;20.70;1.00;;;;;;5030879;28;20798;-65
2023/04/22 08:11:28;;;;;;;5.00;4.72;;;20.60;1.00;;;;;;5030781;28;20254;-65
2023/04/22 08:13:54;;;;;;;4.30;4.00;;;20.50;1.00;;;;;;5031051;28;20254;-65
2023/04/22 08:16:19;;;;;;;4.75;4.35;;;20.60;1.00;;;;;;5031067;28;20176;-64
2023/04/22 08:18:45;;;;;;;6.22;5.82;;;20.90;1.00;;;;;;5031254;28;20270;-65
2023/04/22 08:21:11;;;;;;;4.97;4.63;;;21.10;1.00;;;;;;5028321;28;20203;-65
2023/04/22 08:23:37;;;;;;;4.28;4.07;;;21.50;1.00;;;;;;5031062;28;20164;-65
2023/04/22 08:26:03;;;;;;;3.78;3.58;;;21.80;1.00;;;;;;5030267;28;20218;-65
2023/04/22 08:28:29;;;;;;;4.47;4.13;;;21.90;1.00;;;;;;5030864;28;20207;-65
2023/04/22 08:30:54;;;;;;;4.50;4.30;;;21.80;1.00;;;;;;5030382;28;20212;-65
2023/04/22 08:33:20;;;;;;;4.40;4.00;;;21.80;1.00;;;;;;5031033;28;20254;-64
2023/04/22 08:35:46;;;;;;;4.53;4.22;;;21.40;1.00;;;;;;5030594;28;20171;-65
2023/04/22 08:38:12;;;;;;;4.38;4.07;;;21.20;1.00;;;;;;5030408;28;20214;-65
2023/04/22 08:40:41;;;;;;;4.68;4.22;;;21.10;1.00;;;;;;5033693;28;20517;-65
2023/04/22 08:43:06;;;;;;;4.30;4.00;;;21.10;1.00;;;;;;5033988;28;20175;-65
2023/04/22 08:45:32;;;;;;;4.47;4.05;;;21.10;1.00;;;;;;5034675;28;20765;-65
2023/04/22 08:47:59;;;;;;;6.78;6.38;;;21.40;1.00;;;;;;5033854;28;20195;-65
2023/04/22 08:50:25;;;;;;;5.13;4.72;;;21.70;1.00;;;;;;5034146;28;20196;-65
2023/04/22 08:52:51;;;;;;;5.05;4.75;;;22.00;1.00;;;;;;5031743;28;20171;-65
2023/04/22 08:55:17;;;;;;;3.80;3.60;;;22.30;1.00;;;;;;5034342;28;20236;-66
2023/04/22 08:57:43;;;;;;;3.20;3.00;;;22.90;1.00;;;;;;5034263;28;20199;-65
2023/04/22 09:00:09;;;;;;;3.70;3.50;;;23.30;1.00;;;;;;5033731;28;20532;-65
2023/04/22 09:02:37;;;;;;;3.42;3.22;;;23.60;1.00;;;;;;5034001;28;20317;-65
2023/04/22 09:05:05;;;;;;;3.40;3.20;;;23.70;99.90;;;;;;5033820;28;20168;-65
2023/04/22 09:07:32;;;;;;;2.92;2.72;;;23.90;99.90;;;;;;5033009;28;20285;-65
2023/04/22 09:09:58;;;;;;;3.30;3.10;;;24.20;99.90;;;;;;5033298;28;20175;-65
2023/04/22 09:12:27;;;;;;;4.00;3.60;;;24.40;99.90;;;;;;5033870;28;20183;-66
2023/04/22 09:14:53;;;;;;;3.65;3.45;;;24.40;99.90;;;;;;5033988;28;20176;-65
2023/04/22 09:17:30;;;;;;;3.83;3.25;;;24.60;99.90;;;;;;5033993;28;20179;-66
2023/04/22 09:20:00;;;;;;;3.38;3.17;;;24.90;99.90;;;;;;5033650;28;20209;-65
2023/04/22 09:22:27;;;;;;;3.13;2.80;;;25.00;99.90;;;;;;5033643;28;20179;-65
2023/04/22 09:24:52;;;;;;;3.05;2.88;;;24.80;99.90;;;;;;5032502;28;20168;-64
2023/04/22 09:27:22;;;;;;;3.17;3.08;;;24.80;99.90;;;;;;5032871;28;20245;-65
2023/04/22 09:29:49;;;;;;;3.10;2.88;;;24.90;99.90;;;;;;5034141;28;20262;-64
2023/04/22 09:32:15;;;;;;;3.33;3.13;;;24.80;99.90;;;;;;5033068;28;20754;-65
2023/04/22 09:34:53;;;;;;;5.95;3.55;;;24.80;99.90;;;;;;5033642;28;20236;-65
2023/04/22 09:37:22;;;;;;;3.10;2.90;;;24.80;99.90;;;;;;5033518;28;20183;-66
2023/04/22 09:39:48;;;;;;;3.63;3.38;;;24.70;99.90;;;;;;5033127;28;20227;-66
2023/04/22 09:42:15;;;;;;;3.53;3.22;;;24.40;99.90;;;;;;5032870;28;20183;-65
2023/04/22 09:44:41;;;;;;;3.60;3.40;;;24.40;99.90;;;;;;5033745;28;20529;-66
2023/04/22 09:47:09;;;;;;;3.30;3.05;;;24.80;99.90;;;;;;5032917;28;20179;-65
2023/04/22 09:49:37;;;;;;;3.65;3.45;;;25.10;99.90;;;;;;5033174;28;20544;-66
2023/04/22 09:52:03;;;;;;;4.13;3.42;;;25.20;99.90;;;;;;5031520;28;20270;-65
2023/04/22 09:54:29;;;;;;;4.35;4.03;;;25.00;99.90;;;;;;5033262;28;20259;-63
2023/04/22 09:56:55;;;;;;;3.67;3.33;;;24.40;99.90;;;;;;5032388;28;20176;-64
2023/04/22 09:59:23;;;;;;;3.55;3.25;;;23.90;99.90;;;;;;5030045;28;20229;-65
2023/04/22 10:01:57;;;;;;;3.50;3.30;;;23.50;99.90;;;;;;5033142;28;20198;-65
2023/04/22 10:04:24;;;;;;;5.20;3.35;;;23.50;99.90;;;;;;5032929;28;20167;-65
2023/04/22 10:06:51;;;;;;;2.80;2.65;;;23.20;99.90;;;;;;5033155;28;20176;-65
2023/04/22 10:09:18;;;;;;;3.33;3.03;;;23.00;99.90;;;;;;5032482;28;20227;-65
2023/04/22 10:11:45;;;;;;;3.30;3.17;;;22.80;99.90;;;;;;5032958;28;20174;-66
2023/04/22 10:14:12;;;;;;;3.97;3.75;;;22.50;99.90;;;;;;5032376;28;20192;-65
2023/04/22 10:16:40;;;;;;;4.22;3.92;;;22.40;99.90;;;;;;5033059;28;20179;-65
2023/04/22 10:19:07;;;;;;;3.65;3.35;;;22.30;99.90;;;;;;5032202;28;20718;-65
2023/04/22 10:21:34;;;;;;;3.95;3.65;;;22.40;99.90;;;;;;5032875;28;20168;-66
2023/04/22 10:24:00;;;;;;;4.00;3.70;;;22.30;99.90;;;;;;5032206;28;20192;-65
2023/04/22 10:26:49;;;;;;;4.53;3.35;;;21.90;99.90;;;;;;5031358;28;20638;-65
2023/04/22 10:29:19;;;;;;;3.72;3.53;;;21.70;99.90;;;;;;5032018;28;20588;-65
2023/04/22 10:32:02;;;;;;;4.30;4.07;;;21.70;99.90;;;;;;5030032;28;20274;-66
2023/04/22 10:34:31;;;;;;;3.60;3.40;;;21.50;99.90;;;;;;5032992;28;20190;-66
2023/04/22 10:37:24;;;;;;;4.20;3.95;;;21.30;99.90;;;;;;5032334;28;20176;-65
2023/04/22 10:40:15;;;;;;;4.88;4.38;;;21.40;99.90;;;;;;5031999;28;20247;-66
2023/04/22 10:42:45;;;;;;;3.83;3.63;;;21.90;99.90;;;;;;5031963;28;20176;-65
2023/04/22 10:45:16;;;;;;;3.97;3.67;;;22.30;99.90;;;;;;5032302;28;20179;-66
2023/04/22 10:47:42;;;;;;;3.05;2.78;;;22.70;99.90;;;;;;5031975;28;20195;-65
2023/04/22 10:50:26;;;;;;;3.17;2.97;;;23.10;99.90;;;;;;5031736;28;20514;-65
2023/04/22 10:52:53;;;;;;;3.55;3.35;;;23.50;99.90;;;;;;5031942;28;20187;-65
2023/04/22 10:55:20;;;;;;;3.58;3.38;;;23.70;99.90;;;;;;5032094;28;20512;-66
2023/04/22 10:57:47;;;;;;;3.03;2.92;;;23.90;99.90;;;;;;5031578;28;20210;-66
2023/04/22 11:00:26;;;;;;;5.28;3.70;;;23.90;99.90;;;;;;5031239;28;20661;-65
2023/04/22 11:02:54;;;;;;;3.38;3.17;;;24.00;99.90;;;;;;5030116;28;20187;-64
2023/04/22 11:05:26;;;;;;;3.30;3.10;;;24.00;99.90;;;;;;5031083;28;20262;-66
2023/04/22 11:08:00;;;;;;;4.18;3.88;;;23.60;99.90;;;;;;5031717;28;20257;-67
2023/04/22 11:10:40;;;;;;;4.00;2.90;;;23.30;99.90;;;;;;5031522;28;20170;-65
2023/04/22 11:13:16;;;;;;;3.38;3.13;;;23.10;99.90;;;;;;5031834;28;20236;-65
2023/04/22 11:15:44;;;;;;;3.70;3.50;;;23.00;99.90;;;;;;5031877;28;20182;-65
2023/04/22 11:18:14;;;;;;;3.00;2.90;;;22.90;99.90;;;;;;5031127;28;20994;-65
2023/04/22 11:20:40;;;;;;;4.20;3.80;;;22.80;99.90;;;;;;5031413;28;20183;-65
2023/04/22 11:23:05;;;;;;;3.50;3.30;;;23.00;99.90;;;;;;5031312;28;20175;-66
2023/04/22 11:25:31;;;;;;;3.53;3.30;;;23.40;99.90;;;;;;5031644;28;20168;-65
2023/04/22 11:27:57;;;;;;;3.83;3.60;;;24.00;99.90;;;;;;5030984;28;20211;-65
2023/04/22 11:30:25;;;;;;;3.80;3.47;;;24.60;99.90;;;;;;5031028;28;20180;-64
2023/04/22 11:32:52;;;;;;;3.58;3.38;;;24.80;99.90;;;;;;5031558;28;20172;-65
2023/04/22 11:35:20;;;;;;;4.85;4.45;;;24.70;99.90;;;;;;5031163;28;20197;-65
2023/04/22 11:37:51;;;;;;;5.20;4.78;;;24.30;99.90;;;;;;5030136;28;20187;-65
2023/04/22 11:40:21;;;;;;;4.72;4.43;;;24.20;99.90;;;;;;5030824;28;20180;-66
2023/04/22 11:42:48;;;;;;;4.40;4.00;;;24.20;99.90;;;;;;5030452;28;20233;-65
2023/04/22 11:45:15;;;;;;;4.60;4.07;;;24.20;99.90;;;;;;5026527;28;20176;-66
2023/04/22 11:47:41;;;;;;;4.50;4.20;;;24.20;99.90;;;;;;5031140;28;20325;-65
2023/04/22 11:50:12;;;;;;;3.47;3.28;;;24.40;99.90;;;;;;5030563;28;20179;-65
2023/04/22 11:52:50;;;;;;;4.13;3.75;;;24.60;99.90;;;;;;5031596;28;20638;-65
2023/04/22 11:55:17;;;;;;;4.72;2.85;;;24.70;99.90;;;;;;5031224;28;20570;-66
2023/04/22 11:57:44;;;;;;;4.20;3.60;;;24.50;99.90;;;;;;5031467;28;20567;-66
2023/04/22 12:00:12;;;;;;;3.15;2.95;;;24.30;99.90;;;;;;5030365;28;20211;-64
2023/04/22 12:02:39;;;;;;;3.47;3.20;;;24.20;99.90;;;;;;5031073;28;20202;-65
2023/04/22 12:05:09;;;;;;;3.63;3.42;;;23.90;99.90;;;;;;5031291;28;20641;-65
2023/04/22 12:07:35;;;;;;;4.00;3.70;;;23.80;99.90;;;;;;5031478;28;20199;-65
2023/04/22 12:10:02;;;;;;;3.70;3.50;;;23.60;99.90;;;;;;5029119;28;20234;-65
2023/04/22 12:12:28;;;;;;;4.35;3.95;;;23.90;99.90;;;;;;5031240;28;20171;-65
2023/04/22 12:14:53;;;;;;;3.60;3.30;;;24.30;99.90;;;;;;5033234;28;20183;-65
2023/04/22 12:17:25;;;;;;;3.67;3.30;;;24.70;99.90;;;;;;5035165;28;20191;-65
2023/04/22 12:19:54;;;;;;;3.75;3.50;;;24.70;99.90;;;;;;5034796;28;20203;-66
2023/04/22 12:22:28;;;;;;;4.20;3.78;;;24.60;99.90;;;;;;5034874;28;20587;-65
2023/04/22 12:24:57;;;;;;;4.00;3.00;;;24.50;99.90;;;;;;5035208;28;20191;-65
2023/04/22 12:27:23;;;;;;;5.47;3.95;;;24.20;99.90;;;;;;5034819;28;20251;-65
2023/04/22 12:29:54;;;;;;;4.32;4.10;;;24.00;99.90;;;;;;5034752;28;20362;-65
2023/04/22 12:32:20;;;;;;;3.88;3.67;;;23.60;99.90;;;;;;5034553;28;20229;-64
2023/04/22 12:34:46;;;;;;;4.65;3.83;;;23.50;99.90;;;;;;5015531;28;20501;-64
2023/04/22 12:37:12;;;;;;;3.85;3.55;;;23.60;99.90;;;;;;5015046;28;20173;-66
2023/04/22 12:39:38;;;;;;;4.35;4.05;;;23.50;99.90;;;;;;5033229;28;20206;-65
2023/04/22 12:42:05;;;;;;;3.40;3.10;;;23.50;99.90;;;;;;5034090;28;20271;-65